createdAt,value
2022-11-12T00:03:46.991Z,7.4
2022-11-12T00:18:46.992Z,6.9
2022-11-12T00:33:46.991Z,7.1
2022-11-12T00:48:47.003Z,7.5
2022-11-12T01:03:47.018Z,7
2022-11-12T01:18:47.000Z,6.8
2022-11-12T01:33:47.004Z,6.8
2022-11-12T01:48:47.004Z,6.6
2022-11-12T02:03:47.026Z,6.4
2022-11-12T02:18:46.990Z,6.4
2022-11-12T02:33:47.002Z,6.2
2022-11-12T02:48:46.992Z,6.3
2022-11-12T03:03:46.997Z,6.2
2022-11-12T03:18:46.996Z,6.1
2022-11-12T03:33:47.002Z,6.1
2022-11-12T03:48:46.995Z,6.1
2022-11-12T04:03:46.992Z,6.4
2022-11-12T04:18:46.991Z,6.4
2022-11-12T04:33:46.994Z,6.1
2022-11-12T04:48:46.986Z,6.1
2022-11-12T05:03:47.011Z,6
2022-11-12T05:18:46.998Z,6
2022-11-12T05:33:47.006Z,6.3
2022-11-12T05:48:46.993Z,6.1
2022-11-12T06:03:46.998Z,5.9
2022-11-12T06:18:47.005Z,6
2022-11-12T06:33:46.989Z,6.1
2022-11-12T06:48:47.008Z,5.9
2022-11-12T07:03:47.010Z,6.1
2022-11-12T07:18:46.992Z,6.2
2022-11-12T07:33:46.994Z,6.5
2022-11-12T07:48:47.014Z,6.7
2022-11-12T08:03:46.999Z,6.9
2022-11-12T08:18:47.001Z,7.4
2022-11-12T08:33:46.994Z,7.8
2022-11-12T08:48:46.999Z,8
2022-11-12T09:03:46.999Z,8.3
2022-11-12T09:18:46.996Z,8.6
2022-11-12T09:33:47.006Z,9.2
2022-11-12T09:48:46.987Z,9.7
2022-11-12T10:03:46.988Z,9.9
2022-11-12T10:18:47.006Z,10.1
2022-11-12T10:33:46.993Z,11.1
2022-11-12T10:48:46.996Z,11.6
2022-11-12T11:03:47.001Z,11.6
2022-11-12T11:18:46.991Z,12.4
2022-11-12T11:33:47.155Z,13
2022-11-12T11:48:46.997Z,13.2
2022-11-12T12:03:47.009Z,12.8
2022-11-12T12:18:46.993Z,12.8
2022-11-12T12:33:46.992Z,12.7
2022-11-12T12:48:47.003Z,12.7
2022-11-12T13:03:47.004Z,12.8
2022-11-12T13:18:47.011Z,13
2022-11-12T13:33:46.962Z,13.4
2022-11-12T13:48:46.988Z,13.2
2022-11-12T14:03:46.997Z,13.2
2022-11-12T14:18:46.995Z,13.2
2022-11-12T14:33:47.011Z,13.2
2022-11-12T14:48:46.990Z,12.8
2022-11-12T15:03:46.990Z,12.8
2022-11-12T15:18:47.003Z,12.9
2022-11-12T15:33:46.989Z,12.4
2022-11-12T15:48:50.305Z,11.9
2022-11-12T16:03:47.000Z,11.8
2022-11-12T16:18:46.999Z,11.5
2022-11-12T16:33:47.010Z,11.4
2022-11-12T16:48:46.996Z,11.2
2022-11-12T17:03:46.995Z,11.1
2022-11-12T17:18:47.001Z,10.9
2022-11-12T17:33:46.993Z,10.8
2022-11-12T17:48:47.009Z,10.6
2022-11-12T18:03:47.003Z,10.5
2022-11-12T18:18:47.009Z,10.3
2022-11-12T18:33:47.006Z,10.4
2022-11-12T18:48:47.001Z,10.5
2022-11-12T19:03:46.991Z,10.3
2022-11-12T19:18:46.990Z,10.2
2022-11-12T19:33:47.013Z,9.9
2022-11-12T19:48:46.991Z,9.9
2022-11-12T20:03:46.975Z,9.8
2022-11-12T20:18:50.782Z,9.8
2022-11-12T20:33:46.995Z,9.6
2022-11-12T20:48:46.993Z,9.6
2022-11-12T21:03:46.999Z,9.4
2022-11-12T21:18:46.996Z,9.4
2022-11-12T21:33:46.986Z,9.3
2022-11-12T21:48:49.053Z,9.2
2022-11-12T22:03:47.000Z,9
2022-11-12T22:18:47.000Z,8.9
2022-11-12T22:33:46.997Z,8.6
2022-11-12T22:48:46.998Z,8.4
2022-11-12T23:03:47.004Z,8.3
2022-11-12T23:18:47.005Z,8.4
2022-11-12T23:33:46.995Z,8.3
2022-11-12T23:48:46.992Z,8.3
